sensor_id;sensor_type;location;lat;lon;timestamp;P1;durP1;ratioP1;P2;durP2;ratioP2
61085;SDS011;46967;48.876;2.136;2022-07-30T00:01:36;5.93;;;2.45;;
61085;SDS011;46967;48.876;2.136;2022-07-30T00:04:02;3.85;;;2.20;;
61085;SDS011;46967;48.876;2.136;2022-07-30T00:06:27;5.93;;;2.45;;
61085;SDS011;46967;48.876;2.136;2022-07-30T00:08:52;3.88;;;2.20;;
61085;SDS011;46967;48.876;2.136;2022-07-30T00:11:18;6.95;;;2.30;;
61085;SDS011;46967;48.876;2.136;2022-07-30T00:13:45;5.30;;;2.47;;
61085;SDS011;46967;48.876;2.136;2022-07-30T00:16:10;4.63;;;2.20;;
61085;SDS011;46967;48.876;2.136;2022-07-30T00:18:36;3.70;;;2.28;;
61085;SDS011;46967;48.876;2.136;2022-07-30T00:21:01;5.85;;;2.28;;
61085;SDS011;46967;48.876;2.136;2022-07-30T00:23:27;2.95;;;2.03;;
61085;SDS011;46967;48.876;2.136;2022-07-30T00:25:52;4.82;;;2.20;;
61085;SDS011;46967;48.876;2.136;2022-07-30T00:28:17;5.00;;;1.90;;
61085;SDS011;46967;48.876;2.136;2022-07-30T00:30:43;5.60;;;1.92;;
61085;SDS011;46967;48.876;2.136;2022-07-30T00:33:08;7.20;;;2.65;;
61085;SDS011;46967;48.876;2.136;2022-07-30T00:35:33;6.70;;;2.08;;
61085;SDS011;46967;48.876;2.136;2022-07-30T00:37:59;4.43;;;2.00;;
61085;SDS011;46967;48.876;2.136;2022-07-30T00:40:24;4.95;;;2.20;;
61085;SDS011;46967;48.876;2.136;2022-07-30T00:42:50;3.10;;;2.00;;
61085;SDS011;46967;48.876;2.136;2022-07-30T00:45:16;3.00;;;1.83;;
61085;SDS011;46967;48.876;2.136;2022-07-30T00:47:42;3.80;;;2.15;;
61085;SDS011;46967;48.876;2.136;2022-07-30T00:50:08;4.05;;;2.22;;
61085;SDS011;46967;48.876;2.136;2022-07-30T00:55:03;4.38;;;1.80;;
61085;SDS011;46967;48.876;2.136;2022-07-30T00:57:30;7.28;;;2.38;;
61085;SDS011;46967;48.876;2.136;2022-07-30T00:59:56;4.97;;;1.67;;
61085;SDS011;46967;48.876;2.136;2022-07-30T01:02:22;6.53;;;1.90;;
61085;SDS011;46967;48.876;2.136;2022-07-30T01:04:47;6.28;;;2.00;;
61085;SDS011;46967;48.876;2.136;2022-07-30T01:07:13;3.33;;;1.70;;
61085;SDS011;46967;48.876;2.136;2022-07-30T01:09:38;6.97;;;1.60;;
61085;SDS011;46967;48.876;2.136;2022-07-30T01:12:04;3.45;;;1.75;;
61085;SDS011;46967;48.876;2.136;2022-07-30T01:14:32;5.50;;;1.60;;
61085;SDS011;46967;48.876;2.136;2022-07-30T01:16:58;4.45;;;2.00;;
61085;SDS011;46967;48.876;2.136;2022-07-30T01:19:25;2.60;;;1.60;;
61085;SDS011;46967;48.876;2.136;2022-07-30T01:27:32;4.45;;;1.52;;
61085;SDS011;46967;48.876;2.136;2022-07-30T01:30:00;3.85;;;1.70;;
61085;SDS011;46967;48.876;2.136;2022-07-30T01:32:28;3.85;;;1.70;;
61085;SDS011;46967;48.876;2.136;2022-07-30T01:34:55;7.10;;;1.90;;
61085;SDS011;46967;48.876;2.136;2022-07-30T01:37:23;4.18;;;1.83;;
61085;SDS011;46967;48.876;2.136;2022-07-30T01:39:51;2.70;;;1.40;;
61085;SDS011;46967;48.876;2.136;2022-07-30T01:42:18;2.47;;;1.30;;
61085;SDS011;46967;48.876;2.136;2022-07-30T01:44:45;4.63;;;1.52;;
61085;SDS011;46967;48.876;2.136;2022-07-30T01:47:14;4.40;;;1.52;;
61085;SDS011;46967;48.876;2.136;2022-07-30T01:49:41;3.83;;;1.48;;
61085;SDS011;46967;48.876;2.136;2022-07-30T01:52:09;6.13;;;1.43;;
61085;SDS011;46967;48.876;2.136;2022-07-30T01:54:36;4.63;;;1.60;;
61085;SDS011;46967;48.876;2.136;2022-07-30T01:57:03;4.38;;;1.75;;
61085;SDS011;46967;48.876;2.136;2022-07-30T01:59:30;3.80;;;1.30;;
61085;SDS011;46967;48.876;2.136;2022-07-30T02:01:58;3.00;;;1.50;;
61085;SDS011;46967;48.876;2.136;2022-07-30T02:04:24;3.63;;;1.40;;
61085;SDS011;46967;48.876;2.136;2022-07-30T02:07:00;4.38;;;1.60;;
61085;SDS011;46967;48.876;2.136;2022-07-30T02:09:30;4.45;;;1.73;;
61085;SDS011;46967;48.876;2.136;2022-07-30T02:12:00;4.38;;;1.95;;
61085;SDS011;46967;48.876;2.136;2022-07-30T02:17:43;3.22;;;1.33;;
61085;SDS011;46967;48.876;2.136;2022-07-30T02:20:11;5.93;;;1.70;;
61085;SDS011;46967;48.876;2.136;2022-07-30T02:22:39;6.28;;;1.73;;
61085;SDS011;46967;48.876;2.136;2022-07-30T02:25:09;3.15;;;1.23;;
61085;SDS011;46967;48.876;2.136;2022-07-30T02:27:37;5.80;;;1.85;;
61085;SDS011;46967;48.876;2.136;2022-07-30T02:30:04;3.28;;;1.42;;
61085;SDS011;46967;48.876;2.136;2022-07-30T02:32:35;6.90;;;1.63;;
61085;SDS011;46967;48.876;2.136;2022-07-30T02:35:06;2.83;;;1.35;;
61085;SDS011;46967;48.876;2.136;2022-07-30T02:37:34;7.95;;;1.58;;
61085;SDS011;46967;48.876;2.136;2022-07-30T02:40:00;5.03;;;1.67;;
61085;SDS011;46967;48.876;2.136;2022-07-30T02:42:25;6.18;;;1.35;;
61085;SDS011;46967;48.876;2.136;2022-07-30T02:44:53;6.43;;;1.60;;
61085;SDS011;46967;48.876;2.136;2022-07-30T02:47:22;4.18;;;1.85;;
61085;SDS011;46967;48.876;2.136;2022-07-30T02:49:50;3.88;;;1.35;;
61085;SDS011;46967;48.876;2.136;2022-07-30T02:52:18;4.28;;;1.60;;
61085;SDS011;46967;48.876;2.136;2022-07-30T02:54:44;3.88;;;1.80;;
61085;SDS011;46967;48.876;2.136;2022-07-30T02:57:12;2.38;;;1.67;;
61085;SDS011;46967;48.876;2.136;2022-07-30T02:59:39;2.70;;;1.42;;
61085;SDS011;46967;48.876;2.136;2022-07-30T03:02:06;3.80;;;1.73;;
61085;SDS011;46967;48.876;2.136;2022-07-30T03:04:34;3.75;;;1.80;;
61085;SDS011;46967;48.876;2.136;2022-07-30T03:07:01;5.72;;;1.73;;
61085;SDS011;46967;48.876;2.136;2022-07-30T03:09:27;2.67;;;1.50;;
61085;SDS011;46967;48.876;2.136;2022-07-30T03:11:54;3.35;;;1.63;;
61085;SDS011;46967;48.876;2.136;2022-07-30T03:14:20;5.05;;;1.50;;
61085;SDS011;46967;48.876;2.136;2022-07-30T03:16:52;3.95;;;1.60;;
61085;SDS011;46967;48.876;2.136;2022-07-30T03:19:21;6.93;;;1.85;;
61085;SDS011;46967;48.876;2.136;2022-07-30T03:21:48;10.35;;;2.05;;
61085;SDS011;46967;48.876;2.136;2022-07-30T03:24:16;8.10;;;2.15;;
61085;SDS011;46967;48.876;2.136;2022-07-30T03:26:43;4.60;;;1.52;;
61085;SDS011;46967;48.876;2.136;2022-07-30T03:29:10;3.13;;;1.80;;
61085;SDS011;46967;48.876;2.136;2022-07-30T03:31:38;3.17;;;1.40;;
61085;SDS011;46967;48.876;2.136;2022-07-30T03:34:04;3.72;;;1.40;;
61085;SDS011;46967;48.876;2.136;2022-07-30T03:36:31;5.55;;;2.10;;
61085;SDS011;46967;48.876;2.136;2022-07-30T03:38:56;2.97;;;1.60;;
61085;SDS011;46967;48.876;2.136;2022-07-30T03:41:22;6.45;;;1.60;;
61085;SDS011;46967;48.876;2.136;2022-07-30T03:43:48;4.20;;;1.67;;
61085;SDS011;46967;48.876;2.136;2022-07-30T03:46:14;8.68;;;2.00;;
61085;SDS011;46967;48.876;2.136;2022-07-30T03:48:40;2.35;;;1.52;;
61085;SDS011;46967;48.876;2.136;2022-07-30T03:51:07;4.28;;;1.92;;
61085;SDS011;46967;48.876;2.136;2022-07-30T03:53:34;4.53;;;1.83;;
61085;SDS011;46967;48.876;2.136;2022-07-30T03:56:00;6.22;;;1.70;;
61085;SDS011;46967;48.876;2.136;2022-07-30T03:58:26;3.80;;;1.80;;
61085;SDS011;46967;48.876;2.136;2022-07-30T04:00:51;4.15;;;1.70;;
61085;SDS011;46967;48.876;2.136;2022-07-30T04:03:26;2.78;;;1.63;;
61085;SDS011;46967;48.876;2.136;2022-07-30T04:05:53;5.75;;;2.00;;
61085;SDS011;46967;48.876;2.136;2022-07-30T04:08:18;2.58;;;1.60;;
61085;SDS011;46967;48.876;2.136;2022-07-30T04:10:44;2.58;;;1.80;;
61085;SDS011;46967;48.876;2.136;2022-07-30T04:13:09;3.17;;;1.80;;
61085;SDS011;46967;48.876;2.136;2022-07-30T04:15:36;3.78;;;1.70;;
61085;SDS011;46967;48.876;2.136;2022-07-30T04:18:09;5.07;;;1.83;;
61085;SDS011;46967;48.876;2.136;2022-07-30T04:20:40;4.78;;;1.98;;
61085;SDS011;46967;48.876;2.136;2022-07-30T04:23:07;3.17;;;1.77;;
61085;SDS011;46967;48.876;2.136;2022-07-30T04:25:34;3.05;;;1.80;;
61085;SDS011;46967;48.876;2.136;2022-07-30T04:28:00;4.70;;;1.90;;
61085;SDS011;46967;48.876;2.136;2022-07-30T04:30:26;4.72;;;1.70;;
61085;SDS011;46967;48.876;2.136;2022-07-30T04:32:52;6.15;;;1.98;;
61085;SDS011;46967;48.876;2.136;2022-07-30T04:35:25;3.75;;;1.70;;
61085;SDS011;46967;48.876;2.136;2022-07-30T04:37:54;8.52;;;2.00;;
61085;SDS011;46967;48.876;2.136;2022-07-30T04:40:19;4.80;;;1.60;;
61085;SDS011;46967;48.876;2.136;2022-07-30T04:42:44;5.05;;;1.98;;
61085;SDS011;46967;48.876;2.136;2022-07-30T04:45:10;3.88;;;1.90;;
61085;SDS011;46967;48.876;2.136;2022-07-30T04:47:35;4.00;;;1.77;;
61085;SDS011;46967;48.876;2.136;2022-07-30T04:50:01;3.03;;;1.63;;
61085;SDS011;46967;48.876;2.136;2022-07-30T04:52:30;3.53;;;1.98;;
61085;SDS011;46967;48.876;2.136;2022-07-30T04:54:57;4.47;;;1.98;;
61085;SDS011;46967;48.876;2.136;2022-07-30T04:57:26;6.90;;;1.80;;
61085;SDS011;46967;48.876;2.136;2022-07-30T04:59:52;5.60;;;1.83;;
61085;SDS011;46967;48.876;2.136;2022-07-30T05:02:18;4.78;;;1.92;;
61085;SDS011;46967;48.876;2.136;2022-07-30T05:04:46;3.83;;;1.88;;
61085;SDS011;46967;48.876;2.136;2022-07-30T05:07:14;6.70;;;1.95;;
61085;SDS011;46967;48.876;2.136;2022-07-30T05:09:41;4.40;;;2.00;;
61085;SDS011;46967;48.876;2.136;2022-07-30T05:12:07;4.30;;;2.00;;
61085;SDS011;46967;48.876;2.136;2022-07-30T05:14:33;4.22;;;1.80;;
61085;SDS011;46967;48.876;2.136;2022-07-30T05:16:58;4.15;;;1.88;;
61085;SDS011;46967;48.876;2.136;2022-07-30T05:19:23;8.63;;;1.85;;
61085;SDS011;46967;48.876;2.136;2022-07-30T05:21:49;3.38;;;1.83;;
61085;SDS011;46967;48.876;2.136;2022-07-30T05:24:15;4.13;;;1.88;;
61085;SDS011;46967;48.876;2.136;2022-07-30T05:26:40;4.43;;;1.92;;
61085;SDS011;46967;48.876;2.136;2022-07-30T05:29:06;2.42;;;1.90;;
61085;SDS011;46967;48.876;2.136;2022-07-30T05:31:31;3.55;;;2.10;;
61085;SDS011;46967;48.876;2.136;2022-07-30T05:33:56;5.07;;;1.90;;
61085;SDS011;46967;48.876;2.136;2022-07-30T05:36:22;5.28;;;2.03;;
61085;SDS011;46967;48.876;2.136;2022-07-30T05:38:48;4.75;;;1.98;;
61085;SDS011;46967;48.876;2.136;2022-07-30T05:41:13;3.83;;;1.70;;
61085;SDS011;46967;48.876;2.136;2022-07-30T05:43:39;6.43;;;1.90;;
61085;SDS011;46967;48.876;2.136;2022-07-30T05:46:06;5.30;;;1.80;;
61085;SDS011;46967;48.876;2.136;2022-07-30T05:48:31;4.30;;;1.88;;
61085;SDS011;46967;48.876;2.136;2022-07-30T05:50:59;3.97;;;1.90;;
61085;SDS011;46967;48.876;2.136;2022-07-30T05:53:26;5.72;;;1.98;;
61085;SDS011;46967;48.876;2.136;2022-07-30T05:55:51;2.53;;;1.60;;
61085;SDS011;46967;48.876;2.136;2022-07-30T05:58:16;2.58;;;1.60;;
61085;SDS011;46967;48.876;2.136;2022-07-30T06:00:42;3.28;;;2.00;;
61085;SDS011;46967;48.876;2.136;2022-07-30T06:03:07;3.10;;;1.80;;
61085;SDS011;46967;48.876;2.136;2022-07-30T06:05:33;3.38;;;1.60;;
61085;SDS011;46967;48.876;2.136;2022-07-30T06:07:58;3.75;;;1.95;;
61085;SDS011;46967;48.876;2.136;2022-07-30T06:10:24;12.00;;;1.73;;
61085;SDS011;46967;48.876;2.136;2022-07-30T06:12:49;6.03;;;1.75;;
61085;SDS011;46967;48.876;2.136;2022-07-30T06:15:15;4.07;;;1.90;;
61085;SDS011;46967;48.876;2.136;2022-07-30T06:17:41;3.97;;;1.52;;
61085;SDS011;46967;48.876;2.136;2022-07-30T06:20:08;3.08;;;1.55;;
61085;SDS011;46967;48.876;2.136;2022-07-30T06:22:34;5.90;;;2.00;;
61085;SDS011;46967;48.876;2.136;2022-07-30T06:24:59;9.02;;;2.25;;
61085;SDS011;46967;48.876;2.136;2022-07-30T06:27:25;6.22;;;2.00;;
61085;SDS011;46967;48.876;2.136;2022-07-30T06:29:51;6.68;;;1.77;;
61085;SDS011;46967;48.876;2.136;2022-07-30T06:32:17;3.58;;;1.85;;
61085;SDS011;46967;48.876;2.136;2022-07-30T06:34:43;4.85;;;1.92;;
61085;SDS011;46967;48.876;2.136;2022-07-30T06:37:09;5.05;;;1.60;;
61085;SDS011;46967;48.876;2.136;2022-07-30T06:39:34;5.15;;;1.70;;
61085;SDS011;46967;48.876;2.136;2022-07-30T06:41:59;2.83;;;1.40;;
61085;SDS011;46967;48.876;2.136;2022-07-30T06:44:25;2.38;;;1.45;;
61085;SDS011;46967;48.876;2.136;2022-07-30T06:46:50;4.82;;;1.70;;
61085;SDS011;46967;48.876;2.136;2022-07-30T06:49:16;4.78;;;1.77;;
61085;SDS011;46967;48.876;2.136;2022-07-30T06:51:42;7.97;;;1.75;;
61085;SDS011;46967;48.876;2.136;2022-07-30T06:54:07;6.65;;;1.60;;
61085;SDS011;46967;48.876;2.136;2022-07-30T06:56:32;4.15;;;1.50;;
61085;SDS011;46967;48.876;2.136;2022-07-30T06:58:58;7.30;;;1.55;;
61085;SDS011;46967;48.876;2.136;2022-07-30T07:01:23;5.50;;;1.63;;
61085;SDS011;46967;48.876;2.136;2022-07-30T07:03:49;5.15;;;1.45;;
61085;SDS011;46967;48.876;2.136;2022-07-30T07:06:14;3.88;;;1.52;;
61085;SDS011;46967;48.876;2.136;2022-07-30T07:08:40;3.47;;;1.45;;
61085;SDS011;46967;48.876;2.136;2022-07-30T07:11:05;2.92;;;1.48;;
61085;SDS011;46967;48.876;2.136;2022-07-30T07:13:30;4.35;;;1.60;;
61085;SDS011;46967;48.876;2.136;2022-07-30T07:15:56;2.67;;;1.50;;
61085;SDS011;46967;48.876;2.136;2022-07-30T07:18:21;4.90;;;1.67;;
61085;SDS011;46967;48.876;2.136;2022-07-30T07:20:47;6.57;;;1.75;;
61085;SDS011;46967;48.876;2.136;2022-07-30T07:23:12;5.07;;;1.50;;
61085;SDS011;46967;48.876;2.136;2022-07-30T07:25:38;4.35;;;1.70;;
61085;SDS011;46967;48.876;2.136;2022-07-30T07:28:04;5.85;;;1.38;;
61085;SDS011;46967;48.876;2.136;2022-07-30T07:30:30;4.00;;;1.42;;
61085;SDS011;46967;48.876;2.136;2022-07-30T07:32:55;4.60;;;1.70;;
61085;SDS011;46967;48.876;2.136;2022-07-30T07:35:20;3.65;;;1.40;;
61085;SDS011;46967;48.876;2.136;2022-07-30T07:37:46;6.05;;;1.63;;
61085;SDS011;46967;48.876;2.136;2022-07-30T07:40:11;4.22;;;1.98;;
61085;SDS011;46967;48.876;2.136;2022-07-30T07:42:37;6.15;;;1.67;;
61085;SDS011;46967;48.876;2.136;2022-07-30T07:45:02;4.30;;;1.52;;
61085;SDS011;46967;48.876;2.136;2022-07-30T07:47:29;6.13;;;1.63;;
61085;SDS011;46967;48.876;2.136;2022-07-30T07:49:54;5.40;;;1.70;;
61085;SDS011;46967;48.876;2.136;2022-07-30T07:52:20;3.95;;;1.42;;
61085;SDS011;46967;48.876;2.136;2022-07-30T07:54:45;3.53;;;1.70;;
61085;SDS011;46967;48.876;2.136;2022-07-30T07:57:10;4.47;;;1.50;;
61085;SDS011;46967;48.876;2.136;2022-07-30T07:59:36;3.20;;;1.80;;
61085;SDS011;46967;48.876;2.136;2022-07-30T08:02:02;5.05;;;1.58;;
61085;SDS011;46967;48.876;2.136;2022-07-30T08:04:27;4.50;;;1.75;;
61085;SDS011;46967;48.876;2.136;2022-07-30T08:06:52;4.72;;;1.40;;
61085;SDS011;46967;48.876;2.136;2022-07-30T08:09:18;3.05;;;1.40;;
61085;SDS011;46967;48.876;2.136;2022-07-30T08:11:43;5.68;;;1.75;;
61085;SDS011;46967;48.876;2.136;2022-07-30T08:14:08;3.30;;;1.30;;
61085;SDS011;46967;48.876;2.136;2022-07-30T08:16:34;6.43;;;1.52;;
61085;SDS011;46967;48.876;2.136;2022-07-30T08:18:59;3.33;;;1.48;;
61085;SDS011;46967;48.876;2.136;2022-07-30T08:21:24;13.25;;;1.60;;
61085;SDS011;46967;48.876;2.136;2022-07-30T08:23:50;5.18;;;1.80;;
61085;SDS011;46967;48.876;2.136;2022-07-30T08:26:15;3.22;;;1.60;;
61085;SDS011;46967;48.876;2.136;2022-07-30T08:28:41;3.40;;;1.40;;
61085;SDS011;46967;48.876;2.136;2022-07-30T08:31:07;4.75;;;1.40;;
61085;SDS011;46967;48.876;2.136;2022-07-30T08:33:32;3.22;;;1.50;;
61085;SDS011;46967;48.876;2.136;2022-07-30T08:35:58;2.72;;;1.40;;
61085;SDS011;46967;48.876;2.136;2022-07-30T08:38:23;4.53;;;1.40;;
61085;SDS011;46967;48.876;2.136;2022-07-30T08:40:48;4.82;;;1.80;;
61085;SDS011;46967;48.876;2.136;2022-07-30T08:43:14;6.22;;;1.58;;
61085;SDS011;46967;48.876;2.136;2022-07-30T08:45:40;2.83;;;1.30;;
61085;SDS011;46967;48.876;2.136;2022-07-30T08:48:08;3.38;;;1.33;;
61085;SDS011;46967;48.876;2.136;2022-07-30T08:50:35;3.28;;;1.27;;
61085;SDS011;46967;48.876;2.136;2022-07-30T08:53:01;3.05;;;1.10;;
61085;SDS011;46967;48.876;2.136;2022-07-30T08:55:26;2.95;;;1.30;;
61085;SDS011;46967;48.876;2.136;2022-07-30T08:57:52;1.98;;;1.17;;
61085;SDS011;46967;48.876;2.136;2022-07-30T09:00:19;3.10;;;1.10;;
61085;SDS011;46967;48.876;2.136;2022-07-30T09:02:45;3.72;;;1.08;;
61085;SDS011;46967;48.876;2.136;2022-07-30T09:05:11;3.53;;;1.10;;
61085;SDS011;46967;48.876;2.136;2022-07-30T09:07:37;3.70;;;1.10;;
61085;SDS011;46967;48.876;2.136;2022-07-30T09:10:03;2.05;;;1.10;;
61085;SDS011;46967;48.876;2.136;2022-07-30T09:15:12;3.53;;;1.10;;
61085;SDS011;46967;48.876;2.136;2022-07-30T09:20:14;1.98;;;1.10;;
61085;SDS011;46967;48.876;2.136;2022-07-30T09:22:50;2.75;;;0.90;;
61085;SDS011;46967;48.876;2.136;2022-07-30T09:25:39;3.30;;;0.90;;
61085;SDS011;46967;48.876;2.136;2022-07-30T09:28:06;3.10;;;0.95;;
61085;SDS011;46967;48.876;2.136;2022-07-30T09:30:43;2.10;;;1.10;;
61085;SDS011;46967;48.876;2.136;2022-07-30T09:33:09;4.65;;;1.00;;
61085;SDS011;46967;48.876;2.136;2022-07-30T09:35:35;1.52;;;1.05;;
61085;SDS011;46967;48.876;2.136;2022-07-30T09:38:01;3.65;;;1.20;;
61085;SDS011;46967;48.876;2.136;2022-07-30T09:40:28;4.07;;;1.00;;
61085;SDS011;46967;48.876;2.136;2022-07-30T09:43:04;3.80;;;1.25;;
61085;SDS011;46967;48.876;2.136;2022-07-30T09:45:34;2.53;;;1.55;;
61085;SDS011;46967;48.876;2.136;2022-07-30T09:47:59;2.30;;;1.00;;
61085;SDS011;46967;48.876;2.136;2022-07-30T09:50:25;3.72;;;1.00;;
61085;SDS011;46967;48.876;2.136;2022-07-30T09:52:52;4.00;;;1.13;;
61085;SDS011;46967;48.876;2.136;2022-07-30T09:55:34;5.75;;;1.20;;
61085;SDS011;46967;48.876;2.136;2022-07-30T09:58:01;1.48;;;1.13;;
61085;SDS011;46967;48.876;2.136;2022-07-30T10:00:31;2.65;;;1.30;;
61085;SDS011;46967;48.876;2.136;2022-07-30T10:02:59;8.05;;;0.90;;
61085;SDS011;46967;48.876;2.136;2022-07-30T10:05:25;2.13;;;1.10;;
61085;SDS011;46967;48.876;2.136;2022-07-30T10:10:22;1.58;;;0.80;;
61085;SDS011;46967;48.876;2.136;2022-07-30T10:12:50;6.22;;;2.13;;
61085;SDS011;46967;48.876;2.136;2022-07-30T10:15:20;3.97;;;1.38;;
61085;SDS011;46967;48.876;2.136;2022-07-30T10:17:48;2.60;;;1.10;;
61085;SDS011;46967;48.876;2.136;2022-07-30T10:20:14;6.70;;;2.65;;
61085;SDS011;46967;48.876;2.136;2022-07-30T10:22:40;2.47;;;1.40;;
61085;SDS011;46967;48.876;2.136;2022-07-30T10:25:07;4.28;;;1.02;;
61085;SDS011;46967;48.876;2.136;2022-07-30T10:27:33;3.63;;;1.10;;
61085;SDS011;46967;48.876;2.136;2022-07-30T10:29:58;7.68;;;3.50;;
61085;SDS011;46967;48.876;2.136;2022-07-30T10:32:25;2.72;;;1.10;;
61085;SDS011;46967;48.876;2.136;2022-07-30T10:34:51;3.58;;;1.50;;
61085;SDS011;46967;48.876;2.136;2022-07-30T10:37:17;3.40;;;1.02;;
61085;SDS011;46967;48.876;2.136;2022-07-30T10:39:55;4.88;;;1.85;;
61085;SDS011;46967;48.876;2.136;2022-07-30T10:47:46;4.68;;;1.10;;
61085;SDS011;46967;48.876;2.136;2022-07-30T10:50:14;5.50;;;1.48;;
61085;SDS011;46967;48.876;2.136;2022-07-30T10:52:50;4.47;;;1.48;;
61085;SDS011;46967;48.876;2.136;2022-07-30T10:55:24;4.20;;;1.00;;
61085;SDS011;46967;48.876;2.136;2022-07-30T10:58:01;6.22;;;1.20;;
61085;SDS011;46967;48.876;2.136;2022-07-30T11:03:18;2.67;;;1.08;;
61085;SDS011;46967;48.876;2.136;2022-07-30T11:08:42;4.07;;;1.15;;
61085;SDS011;46967;48.876;2.136;2022-07-30T11:13:47;1.67;;;1.05;;
61085;SDS011;46967;48.876;2.136;2022-07-30T11:16:20;3.55;;;1.10;;
61085;SDS011;46967;48.876;2.136;2022-07-30T11:21:37;7.95;;;1.85;;
61085;SDS011;46967;48.876;2.136;2022-07-30T11:24:03;4.55;;;1.23;;
61085;SDS011;46967;48.876;2.136;2022-07-30T11:29:04;3.00;;;0.90;;
61085;SDS011;46967;48.876;2.136;2022-07-30T11:31:33;4.05;;;1.00;;
61085;SDS011;46967;48.876;2.136;2022-07-30T11:44:50;7.13;;;1.20;;
61085;SDS011;46967;48.876;2.136;2022-07-30T11:47:17;4.63;;;1.20;;
61085;SDS011;46967;48.876;2.136;2022-07-30T11:49:46;3.50;;;1.15;;
61085;SDS011;46967;48.876;2.136;2022-07-30T11:52:12;1.98;;;1.17;;
61085;SDS011;46967;48.876;2.136;2022-07-30T11:54:50;2.55;;;1.05;;
61085;SDS011;46967;48.876;2.136;2022-07-30T11:57:16;7.07;;;1.20;;
61085;SDS011;46967;48.876;2.136;2022-07-30T11:59:54;2.22;;;1.42;;
61085;SDS011;46967;48.876;2.136;2022-07-30T12:02:27;6.57;;;1.30;;
61085;SDS011;46967;48.876;2.136;2022-07-30T12:04:52;2.83;;;1.10;;
61085;SDS011;46967;48.876;2.136;2022-07-30T12:07:24;2.35;;;1.00;;
61085;SDS011;46967;48.876;2.136;2022-07-30T12:09:49;4.68;;;1.15;;
61085;SDS011;46967;48.876;2.136;2022-07-30T12:12:21;4.15;;;1.08;;
61085;SDS011;46967;48.876;2.136;2022-07-30T12:14:48;4.47;;;1.30;;
61085;SDS011;46967;48.876;2.136;2022-07-30T12:17:14;4.65;;;1.33;;
61085;SDS011;46967;48.876;2.136;2022-07-30T12:19:43;2.28;;;1.10;;
61085;SDS011;46967;48.876;2.136;2022-07-30T12:22:09;3.67;;;1.10;;
61085;SDS011;46967;48.876;2.136;2022-07-30T12:24:35;1.23;;;0.90;;
61085;SDS011;46967;48.876;2.136;2022-07-30T12:27:04;2.95;;;1.08;;
61085;SDS011;46967;48.876;2.136;2022-07-30T12:29:30;3.33;;;1.13;;
61085;SDS011;46967;48.876;2.136;2022-07-30T12:31:57;4.03;;;1.02;;
61085;SDS011;46967;48.876;2.136;2022-07-30T12:34:23;3.58;;;1.02;;
61085;SDS011;46967;48.876;2.136;2022-07-30T12:36:50;3.55;;;1.05;;
61085;SDS011;46967;48.876;2.136;2022-07-30T12:39:19;3.47;;;0.90;;
61085;SDS011;46967;48.876;2.136;2022-07-30T12:41:47;3.70;;;1.17;;
61085;SDS011;46967;48.876;2.136;2022-07-30T12:47:18;2.88;;;1.10;;
61085;SDS011;46967;48.876;2.136;2022-07-30T12:49:46;3.00;;;1.00;;
61085;SDS011;46967;48.876;2.136;2022-07-30T12:52:21;6.32;;;0.90;;
61085;SDS011;46967;48.876;2.136;2022-07-30T13:00:21;5.63;;;0.95;;
61085;SDS011;46967;48.876;2.136;2022-07-30T13:02:48;3.17;;;1.20;;
61085;SDS011;46967;48.876;2.136;2022-07-30T13:05:13;1.85;;;0.75;;
61085;SDS011;46967;48.876;2.136;2022-07-30T13:07:52;1.10;;;0.80;;
61085;SDS011;46967;48.876;2.136;2022-07-30T13:10:21;1.77;;;0.70;;
61085;SDS011;46967;48.876;2.136;2022-07-30T13:12:48;5.10;;;1.10;;
61085;SDS011;46967;48.876;2.136;2022-07-30T13:15:20;1.65;;;0.90;;
61085;SDS011;46967;48.876;2.136;2022-07-30T13:17:46;9.57;;;1.35;;
61085;SDS011;46967;48.876;2.136;2022-07-30T13:20:13;1.80;;;0.90;;
61085;SDS011;46967;48.876;2.136;2022-07-30T13:22:40;1.45;;;0.85;;
61085;SDS011;46967;48.876;2.136;2022-07-30T13:25:06;6.03;;;1.02;;
61085;SDS011;46967;48.876;2.136;2022-07-30T13:27:32;2.28;;;0.82;;
61085;SDS011;46967;48.876;2.136;2022-07-30T13:29:57;2.67;;;1.02;;
61085;SDS011;46967;48.876;2.136;2022-07-30T13:32:22;4.38;;;1.00;;
61085;SDS011;46967;48.876;2.136;2022-07-30T13:34:48;2.03;;;0.90;;
61085;SDS011;46967;48.876;2.136;2022-07-30T13:37:13;2.22;;;1.10;;
61085;SDS011;46967;48.876;2.136;2022-07-30T13:39:38;3.20;;;1.00;;
61085;SDS011;46967;48.876;2.136;2022-07-30T13:42:04;1.38;;;0.90;;
61085;SDS011;46967;48.876;2.136;2022-07-30T13:44:29;1.85;;;1.08;;
61085;SDS011;46967;48.876;2.136;2022-07-30T13:46:55;1.85;;;0.95;;
61085;SDS011;46967;48.876;2.136;2022-07-30T13:49:20;3.33;;;1.05;;
61085;SDS011;46967;48.876;2.136;2022-07-30T13:51:46;3.95;;;1.10;;
61085;SDS011;46967;48.876;2.136;2022-07-30T13:54:12;1.60;;;1.05;;
61085;SDS011;46967;48.876;2.136;2022-07-30T13:56:37;1.17;;;0.80;;
61085;SDS011;46967;48.876;2.136;2022-07-30T13:59:04;4.80;;;0.98;;
61085;SDS011;46967;48.876;2.136;2022-07-30T14:01:29;3.70;;;1.02;;
61085;SDS011;46967;48.876;2.136;2022-07-30T14:03:54;1.45;;;1.00;;
61085;SDS011;46967;48.876;2.136;2022-07-30T14:06:20;5.95;;;1.00;;
61085;SDS011;46967;48.876;2.136;2022-07-30T14:08:45;3.78;;;0.95;;
61085;SDS011;46967;48.876;2.136;2022-07-30T14:11:11;2.53;;;0.93;;
61085;SDS011;46967;48.876;2.136;2022-07-30T14:13:36;2.30;;;1.00;;
61085;SDS011;46967;48.876;2.136;2022-07-30T14:16:02;2.65;;;1.10;;
61085;SDS011;46967;48.876;2.136;2022-07-30T14:18:28;3.75;;;1.15;;
61085;SDS011;46967;48.876;2.136;2022-07-30T14:20:53;2.88;;;0.90;;
61085;SDS011;46967;48.876;2.136;2022-07-30T14:23:19;3.10;;;0.98;;
61085;SDS011;46967;48.876;2.136;2022-07-30T14:25:44;4.22;;;1.15;;
61085;SDS011;46967;48.876;2.136;2022-07-30T14:28:10;4.20;;;1.05;;
61085;SDS011;46967;48.876;2.136;2022-07-30T14:30:36;5.85;;;1.10;;
61085;SDS011;46967;48.876;2.136;2022-07-30T14:33:01;1.77;;;1.10;;
61085;SDS011;46967;48.876;2.136;2022-07-30T14:35:27;3.38;;;1.10;;
61085;SDS011;46967;48.876;2.136;2022-07-30T14:37:52;7.78;;;1.40;;
61085;SDS011;46967;48.876;2.136;2022-07-30T14:40:18;3.05;;;1.05;;
61085;SDS011;46967;48.876;2.136;2022-07-30T14:42:43;2.15;;;1.00;;
61085;SDS011;46967;48.876;2.136;2022-07-30T14:45:11;2.58;;;1.00;;
61085;SDS011;46967;48.876;2.136;2022-07-30T14:47:37;2.55;;;0.90;;
61085;SDS011;46967;48.876;2.136;2022-07-30T14:50:03;4.60;;;1.00;;
61085;SDS011;46967;48.876;2.136;2022-07-30T14:52:29;1.55;;;0.90;;
61085;SDS011;46967;48.876;2.136;2022-07-30T14:54:54;2.25;;;0.85;;
61085;SDS011;46967;48.876;2.136;2022-07-30T14:57:20;3.35;;;1.00;;
61085;SDS011;46967;48.876;2.136;2022-07-30T14:59:45;3.70;;;0.82;;
61085;SDS011;46967;48.876;2.136;2022-07-30T15:02:10;2.42;;;1.10;;
61085;SDS011;46967;48.876;2.136;2022-07-30T15:04:36;3.33;;;0.85;;
61085;SDS011;46967;48.876;2.136;2022-07-30T15:07:01;3.65;;;0.90;;
61085;SDS011;46967;48.876;2.136;2022-07-30T15:09:26;4.45;;;1.00;;
61085;SDS011;46967;48.876;2.136;2022-07-30T15:11:52;4.53;;;0.90;;
61085;SDS011;46967;48.876;2.136;2022-07-30T15:14:17;5.15;;;1.08;;
61085;SDS011;46967;48.876;2.136;2022-07-30T15:16:43;2.60;;;1.13;;
61085;SDS011;46967;48.876;2.136;2022-07-30T15:19:08;5.68;;;1.13;;
61085;SDS011;46967;48.876;2.136;2022-07-30T15:21:35;4.03;;;1.20;;
61085;SDS011;46967;48.876;2.136;2022-07-30T15:24:00;3.03;;;0.88;;
61085;SDS011;46967;48.876;2.136;2022-07-30T15:26:26;2.90;;;1.00;;
61085;SDS011;46967;48.876;2.136;2022-07-30T15:28:52;6.90;;;1.10;;
61085;SDS011;46967;48.876;2.136;2022-07-30T15:31:17;4.57;;;1.17;;
61085;SDS011;46967;48.876;2.136;2022-07-30T15:33:43;4.53;;;1.30;;
61085;SDS011;46967;48.876;2.136;2022-07-30T15:36:09;2.20;;;1.00;;
61085;SDS011;46967;48.876;2.136;2022-07-30T15:38:35;3.85;;;1.10;;
61085;SDS011;46967;48.876;2.136;2022-07-30T15:41:01;3.28;;;0.90;;
61085;SDS011;46967;48.876;2.136;2022-07-30T15:43:27;3.70;;;1.15;;